Time,TemperatureF,DewpointF,PressureIn,WindDirection,WindDirectionDegrees,WindSpeedMPH,WindSpeedGustMPH,Humidity,HourlyPrecipIn,Conditions,Clouds,dailyrainin,SoftwareType,DateUTC
2013-12-18 00:21:00,65.0,31.0,29.87,ESE,111,0.0,-999.0,28,-99.99,,,-99.99,,2013-12-18 08:21:00,
2013-12-18 00:42:00,65.0,31.0,29.86,ESE,111,0.0,-999.0,28,-99.99,,,-99.99,,2013-12-18 08:42:00,
2013-12-18 00:52:00,65.0,30.0,29.85,ESE,111,0.0,-999.0,27,-99.99,,,-99.99,,2013-12-18 08:52:00,
2013-12-18 01:11:00,65.0,30.0,29.84,ESE,111,0.0,-999.0,27,-99.99,,,-99.99,,2013-12-18 09:11:00,
2013-12-18 01:22:00,65.0,32.0,29.84,ESE,111,0.0,-999.0,29,-99.99,,,-99.99,,2013-12-18 09:22:00,
2013-12-18 01:43:00,64.0,32.0,29.84,ESE,111,0.0,-999.0,30,-99.99,,,-99.99,,2013-12-18 09:43:00,
2013-12-18 01:53:00,63.0,31.0,29.84,ESE,111,0.0,-999.0,30,-99.99,,,-99.99,,2013-12-18 09:53:00,
2013-12-18 02:12:00,63.0,31.0,29.84,ESE,111,0.0,-999.0,30,-99.99,,,-99.99,,2013-12-18 10:12:00,
2013-12-18 02:23:00,63.0,31.0,29.84,ESE,111,0.0,-999.0,30,-99.99,,,-99.99,,2013-12-18 10:23:00,
2013-12-18 02:42:00,63.0,30.0,29.83,ESE,111,0.0,-999.0,29,-99.99,,,-99.99,,2013-12-18 10:42:00,
2013-12-18 02:52:00,64.0,31.0,29.83,ESE,111,0.0,-999.0,29,-99.99,,,-99.99,,2013-12-18 10:52:00,
2013-12-18 03:22:00,64.0,31.0,29.83,ESE,111,0.0,-999.0,29,-99.99,,,-99.99,,2013-12-18 11:22:00,
2013-12-18 03:42:00,63.0,33.0,29.82,ESE,111,0.0,-999.0,32,-99.99,,,-99.99,,2013-12-18 11:42:00,
2013-12-18 03:53:00,63.0,33.0,29.82,ESE,111,0.0,-999.0,33,-99.99,,,-99.99,,2013-12-18 11:53:00,
2013-12-18 04:21:00,62.0,33.0,29.80,ESE,111,0.0,-999.0,34,-99.99,,,-99.99,,2013-12-18 12:21:00,
2013-12-18 04:42:00,61.0,31.0,29.80,ESE,111,0.0,-999.0,32,-99.99,,,-99.99,,2013-12-18 12:42:00,
2013-12-18 04:52:00,61.0,32.0,29.79,ESE,111,0.0,-999.0,33,-99.99,,,-99.99,,2013-12-18 12:52:00,
2013-12-18 05:21:00,64.0,32.0,29.78,SE,128,0.0,-999.0,30,-99.99,,,-99.99,,2013-12-18 13:21:00,
2013-12-18 05:41:00,63.0,31.0,29.79,SE,128,0.0,-999.0,30,-99.99,,,-99.99,,2013-12-18 13:41:00,
2013-12-18 05:52:00,63.0,35.0,29.80,SE,128,0.0,-999.0,35,-99.99,,,-99.99,,2013-12-18 13:52:00,
2013-12-18 06:11:00,62.0,35.0,29.82,SE,128,0.0,-999.0,37,-99.99,,,-99.99,,2013-12-18 14:11:00,
2013-12-18 06:21:00,62.0,36.0,29.82,SE,128,0.0,-999.0,38,-99.99,,,-99.99,,2013-12-18 14:21:00,
2013-12-18 06:42:00,61.0,38.0,29.83,SE,128,0.0,-999.0,43,-99.99,,,-99.99,,2013-12-18 14:42:00,
2013-12-18 06:52:00,60.0,38.0,29.82,SE,128,0.0,-999.0,44,-99.99,,,-99.99,,2013-12-18 14:52:00,
2013-12-18 07:21:00,60.0,42.0,29.83,SSW,198,0.0,-999.0,52,-99.99,,,-99.99,,2013-12-18 15:21:00,
2013-12-18 07:44:00,60.0,42.0,29.84,SSW,198,0.0,-999.0,52,-99.99,,,-99.99,,2013-12-18 15:44:00,
2013-12-18 07:53:00,60.0,35.0,29.84,SSW,198,0.0,-999.0,39,-99.99,,,-99.99,,2013-12-18 15:53:00,
2013-12-18 08:23:00,62.0,38.0,29.83,SSW,205,0.0,-999.0,41,-99.99,,,-99.99,,2013-12-18 16:23:00,
2013-12-18 08:42:00,62.0,40.0,29.80,SSW,205,0.0,-999.0,45,-99.99,,,-99.99,,2013-12-18 16:42:00,
2013-12-18 08:53:00,62.0,40.0,29.82,SSW,205,0.0,-999.0,45,-99.99,,,-99.99,,2013-12-18 16:53:00,
2013-12-18 09:12:00,62.0,40.0,29.85,ESE,115,0.0,-999.0,44,-99.99,,,-99.99,,2013-12-18 17:12:00,
2013-12-18 09:22:00,62.0,41.0,29.84,ESE,115,0.0,-999.0,46,-99.99,,,-99.99,,2013-12-18 17:22:00,
2013-12-18 09:42:00,63.0,40.0,29.85,ESE,115,0.0,-999.0,43,-99.99,,,-99.99,,2013-12-18 17:42:00,
2013-12-18 09:52:00,64.0,40.0,29.83,ESE,115,0.0,-999.0,41,-99.99,,,-99.99,,2013-12-18 17:52:00,
2013-12-18 10:22:00,69.0,40.0,29.81,ESE,106,0.0,-999.0,35,-99.99,,,-99.99,,2013-12-18 18:22:00,
2013-12-18 10:42:00,69.0,39.0,29.81,ESE,106,0.0,-999.0,33,-99.99,,,-99.99,,2013-12-18 18:42:00,
2013-12-18 10:52:00,70.0,36.0,29.81,North,355,0.0,-999.0,29,-99.99,,,-99.99,,2013-12-18 18:52:00,
2013-12-18 11:21:00,71.0,39.0,29.80,ESE,120,0.0,-999.0,31,-99.99,,,-99.99,,2013-12-18 19:21:00,
2013-12-18 11:42:00,71.0,38.0,29.80,ESE,108,0.0,-999.0,30,-99.99,,,-99.99,,2013-12-18 19:42:00,
2013-12-18 11:52:00,72.0,44.0,29.79,East,96,0.0,-999.0,36,-99.99,,,-99.99,,2013-12-18 19:52:00,
2013-12-18 12:42:00,69.0,50.0,29.76,ESE,112,0.0,-999.0,51,-99.99,,,-99.99,,2013-12-18 20:42:00,
2013-12-18 12:53:00,68.0,50.0,29.75,ESE,110,0.0,-999.0,52,-99.99,,,-99.99,,2013-12-18 20:53:00,
2013-12-18 13:21:00,68.0,51.0,29.73,ESE,115,0.0,-999.0,54,-99.99,,,-99.99,,2013-12-18 21:21:00,
2013-12-18 13:43:00,67.0,50.0,29.73,ESE,114,1.0,-999.0,54,-99.99,,,-99.99,,2013-12-18 21:43:00,
2013-12-18 13:53:00,67.0,50.0,29.73,East,101,0.0,-999.0,54,-99.99,,,-99.99,,2013-12-18 21:53:00,
2013-12-18 14:12:00,67.0,48.0,29.74,ENE,74,0.0,-999.0,51,-99.99,,,-99.99,,2013-12-18 22:12:00,
2013-12-18 14:22:00,67.0,49.0,29.74,East,94,0.0,-999.0,52,-99.99,,,-99.99,,2013-12-18 22:22:00,
2013-12-18 14:43:00,65.0,48.0,29.73,ESE,111,1.0,-999.0,55,-99.99,,,-99.99,,2013-12-18 22:43:00,
2013-12-18 14:52:00,64.0,48.0,29.73,ESE,109,0.0,-999.0,56,-99.99,,,-99.99,,2013-12-18 22:52:00,
2013-12-18 15:22:00,64.0,48.0,29.72,ESE,107,0.0,-999.0,56,-99.99,,,-99.99,,2013-12-18 23:22:00,
2013-12-18 15:42:00,64.0,48.0,29.71,ESE,107,0.0,-999.0,56,-99.99,,,-99.99,,2013-12-18 23:42:00,
2013-12-18 15:53:00,63.0,48.0,29.71,ESE,107,0.0,-999.0,58,-99.99,,,-99.99,,2013-12-18 23:53:00,
2013-12-18 16:11:00,62.0,48.0,29.73,East,96,0.0,-999.0,60,-99.99,,,-99.99,,2013-12-19 00:11:00,
2013-12-18 16:21:00,61.0,49.0,29.72,ESE,118,0.0,-999.0,65,-99.99,,,-99.99,,2013-12-19 00:21:00,
2013-12-18 16:42:00,60.0,49.0,29.72,ESE,118,0.0,-999.0,67,-99.99,,,-99.99,,2013-12-19 00:42:00,
2013-12-18 16:52:00,59.0,49.0,29.72,ESE,118,0.0,-999.0,70,-99.99,,,-99.99,,2013-12-19 00:52:00,
2013-12-18 17:21:00,58.0,50.0,29.73,ESE,115,0.0,-999.0,74,-99.99,,,-99.99,,2013-12-19 01:21:00,
2013-12-18 17:52:00,57.0,50.0,29.73,ESE,115,0.0,-999.0,77,-99.99,,,-99.99,,2013-12-19 01:52:00,
2013-12-18 18:22:00,56.0,49.0,29.73,ESE,115,0.0,-999.0,77,-99.99,,,-99.99,,2013-12-19 02:22:00,
2013-12-18 19:21:00,54.0,46.0,29.72,ESE,115,0.0,-999.0,75,-99.99,,,-99.99,,2013-12-19 03:21:00,
2013-12-18 19:43:00,53.0,45.0,29.72,ESE,115,0.0,-999.0,74,-99.99,,,-99.99,,2013-12-19 03:43:00,
2013-12-18 19:53:00,53.0,45.0,29.72,ESE,115,0.0,-999.0,74,-99.99,,,-99.99,,2013-12-19 03:53:00,
2013-12-18 20:12:00,52.0,44.0,29.72,ESE,115,0.0,-999.0,73,-99.99,,,-99.99,,2013-12-19 04:12:00,
2013-12-18 20:23:00,51.0,43.0,29.73,ESE,115,0.0,-999.0,75,-99.99,,,-99.99,,2013-12-19 04:23:00,
2013-12-18 20:42:00,51.0,46.0,29.73,ESE,115,0.0,-999.0,84,-99.99,,,-99.99,,2013-12-19 04:42:00,
2013-12-18 20:53:00,52.0,48.0,29.73,ESE,115,0.0,-999.0,87,-99.99,,,-99.99,,2013-12-19 04:53:00,
2013-12-18 21:22:00,52.0,48.0,29.73,ESE,115,0.0,-999.0,87,-99.99,,,-99.99,,2013-12-19 05:22:00,
2013-12-18 21:42:00,53.0,49.0,29.73,ESE,115,0.0,-999.0,86,-99.99,,,-99.99,,2013-12-19 05:42:00,
2013-12-18 21:52:00,53.0,49.0,29.73,ESE,115,0.0,-999.0,86,-99.99,,,-99.99,,2013-12-19 05:52:00,
2013-12-18 22:22:00,53.0,49.0,29.72,ESE,115,0.0,-999.0,85,-99.99,,,-99.99,,2013-12-19 06:22:00,
2013-12-18 22:52:00,53.0,49.0,29.72,ESE,115,0.0,-999.0,86,-99.99,,,-99.99,,2013-12-19 06:52:00,
2013-12-18 23:21:00,53.0,49.0,29.72,ESE,115,0.0,-999.0,86,-99.99,,,-99.99,,2013-12-19 07:21:00,
2013-12-18 23:42:00,53.0,49.0,29.72,ESE,115,0.0,-999.0,86,-99.99,,,-99.99,,2013-12-19 07:42:00,
2013-12-18 23:52:00,53.0,49.0,29.72,ESE,115,0.0,-999.0,86,-99.99,,,-99.99,,2013-12-19 07:52:00,